Startpagina
METAR-TAF:

METAR-TAF

Vliegvelden :

Kuala Lumpur, Maleisië

Kuala Lumpur International Airport

breedte: 02-44N, lengte: 101-42E, hoogte: 21 m

Actueel weer

Dit bericht is 32 minuten geleden gemaakt, om 04:00 UTC
Wind 9 kt uit het zuidzuidoosten, variërend tussen het oostzuidoosten en het westzuidwesten
Temperatuur 30°C
Vochtigheid 66%
Druk 1009 hPa
Zicht 10 km of meer
Weinig wolken op 1800 ft
Verspreide wolken op 14000 ft
Gebroken wolken op 28000 ft

METAR: WMKK 230400Z 16009KT 120V240 9999 FEW018 SCT140 BKN280 30/23 Q1009 NOSIG

Tijdstip: 12:32 (04:32 UTC)

Verwachting

Dit bericht is 5 uur en het 32 minuten geleden gemaakt, om 23:00 UTC
Verwachting geldig van 23 om 00 UTC tot 24 om 06 UTC
Wind 3 kt uit variabele richting
Zicht 10 km of meer
Weinig wolken op 1700 ft, Cumulonimbus.
Gebroken wolken op 28000 ft

TAF: WMKK 222300Z 2300/2406 VRB03KT 9999 FEW017CB BKN280

Waarnemingen en weersverwachtingen van meer dan 4000 vliegvelden (METAR en TAF).

De beschikbare stations zijn de gele en rode punten op de kaart.

Ga met uw muis naar het station om de naam te zien.

Klik dan om waarnemingen en weersverwachtingen te zien.

kaart wijzigen: klik op de groene knoppen met een zwart kruis om in te zoomen, op de groene knop met een streepje om uit te zoomen of op de groene pijlen voor aangrenzende kaarten.


METAR-TAF: